sensor_id;sensor_type;location;lat;lon;timestamp;temperature;humidity
356;DHT22;62514;48.112;11.566;2023-11-22T00:00:53;6.70;47.10
356;DHT22;62514;48.112;11.566;2023-11-22T00:03:18;6.70;46.90
356;DHT22;62514;48.112;11.566;2023-11-22T00:05:44;6.80;47.00
356;DHT22;62514;48.112;11.566;2023-11-22T00:08:10;6.70;46.00
356;DHT22;62514;48.112;11.566;2023-11-22T00:10:35;6.70;45.80
356;DHT22;62514;48.112;11.566;2023-11-22T00:13:01;6.70;47.00
356;DHT22;62514;48.112;11.566;2023-11-22T00:15:27;6.70;46.60
356;DHT22;62514;48.112;11.566;2023-11-22T00:17:52;6.70;46.80
356;DHT22;62514;48.112;11.566;2023-11-22T00:20:18;6.70;45.70
356;DHT22;62514;48.112;11.566;2023-11-22T00:22:46;6.70;45.60
356;DHT22;62514;48.112;11.566;2023-11-22T00:25:12;6.80;45.30
356;DHT22;62514;48.112;11.566;2023-11-22T00:27:39;6.60;43.80
356;DHT22;62514;48.112;11.566;2023-11-22T00:30:05;6.60;45.30
356;DHT22;62514;48.112;11.566;2023-11-22T00:32:30;6.60;45.40
356;DHT22;62514;48.112;11.566;2023-11-22T00:34:56;6.60;44.80
356;DHT22;62514;48.112;11.566;2023-11-22T00:37:23;6.60;45.40
356;DHT22;62514;48.112;11.566;2023-11-22T00:39:48;6.60;45.40
356;DHT22;62514;48.112;11.566;2023-11-22T00:42:14;6.60;45.40
356;DHT22;62514;48.112;11.566;2023-11-22T00:44:39;6.60;45.10
356;DHT22;62514;48.112;11.566;2023-11-22T00:47:05;6.50;45.40
356;DHT22;62514;48.112;11.566;2023-11-22T00:49:31;6.50;46.00
356;DHT22;62514;48.112;11.566;2023-11-22T00:51:58;6.60;46.30
356;DHT22;62514;48.112;11.566;2023-11-22T00:54:24;6.70;46.30
356;DHT22;62514;48.112;11.566;2023-11-22T00:56:51;6.60;45.40
356;DHT22;62514;48.112;11.566;2023-11-22T00:59:17;6.50;45.40
356;DHT22;62514;48.112;11.566;2023-11-22T01:01:45;6.50;45.40
356;DHT22;62514;48.112;11.566;2023-11-22T01:04:10;6.50;45.60
356;DHT22;62514;48.112;11.566;2023-11-22T01:06:37;6.50;46.10
356;DHT22;62514;48.112;11.566;2023-11-22T01:09:03;6.50;45.20
356;DHT22;62514;48.112;11.566;2023-11-22T01:11:29;6.50;45.40
356;DHT22;62514;48.112;11.566;2023-11-22T01:13:55;6.40;44.80
356;DHT22;62514;48.112;11.566;2023-11-22T01:16:20;6.40;45.40
356;DHT22;62514;48.112;11.566;2023-11-22T01:18:47;6.50;45.90
356;DHT22;62514;48.112;11.566;2023-11-22T01:21:12;6.50;46.00
356;DHT22;62514;48.112;11.566;2023-11-22T01:23:38;6.60;45.70
356;DHT22;62514;48.112;11.566;2023-11-22T01:26:04;6.70;45.30
356;DHT22;62514;48.112;11.566;2023-11-22T01:28:30;6.70;43.80
356;DHT22;62514;48.112;11.566;2023-11-22T01:31:00;6.70;43.80
356;DHT22;62514;48.112;11.566;2023-11-22T01:33:26;6.60;42.90
356;DHT22;62514;48.112;11.566;2023-11-22T01:35:52;6.60;43.40
356;DHT22;62514;48.112;11.566;2023-11-22T01:38:18;6.70;44.00
356;DHT22;62514;48.112;11.566;2023-11-22T01:40:47;6.70;43.60
356;DHT22;62514;48.112;11.566;2023-11-22T01:43:20;6.60;42.90
356;DHT22;62514;48.112;11.566;2023-11-22T01:45:53;6.50;42.30
356;DHT22;62514;48.112;11.566;2023-11-22T01:48:19;6.50;43.40
356;DHT22;62514;48.112;11.566;2023-11-22T01:50:46;6.40;43.80
356;DHT22;62514;48.112;11.566;2023-11-22T01:53:12;6.40;44.20
356;DHT22;62514;48.112;11.566;2023-11-22T01:55:39;6.40;44.40
356;DHT22;62514;48.112;11.566;2023-11-22T01:58:06;6.40;44.80
356;DHT22;62514;48.112;11.566;2023-11-22T02:00:42;6.40;45.00
356;DHT22;62514;48.112;11.566;2023-11-22T02:03:09;6.40;45.30
356;DHT22;62514;48.112;11.566;2023-11-22T02:05:34;6.40;45.90
356;DHT22;62514;48.112;11.566;2023-11-22T02:08:00;6.40;46.20
356;DHT22;62514;48.112;11.566;2023-11-22T02:10:26;6.50;46.20
356;DHT22;62514;48.112;11.566;2023-11-22T02:12:52;6.40;46.40
356;DHT22;62514;48.112;11.566;2023-11-22T02:15:17;6.40;46.20
356;DHT22;62514;48.112;11.566;2023-11-22T02:17:43;6.40;46.90
356;DHT22;62514;48.112;11.566;2023-11-22T02:20:10;6.10;45.70
356;DHT22;62514;48.112;11.566;2023-11-22T02:22:44;6.00;45.10
356;DHT22;62514;48.112;11.566;2023-11-22T02:25:10;5.90;45.10
356;DHT22;62514;48.112;11.566;2023-11-22T02:27:36;5.90;44.50
356;DHT22;62514;48.112;11.566;2023-11-22T02:30:03;5.70;43.80
356;DHT22;62514;48.112;11.566;2023-11-22T02:32:32;5.50;44.50
356;DHT22;62514;48.112;11.566;2023-11-22T02:34:59;5.20;42.40
356;DHT22;62514;48.112;11.566;2023-11-22T02:37:25;4.90;40.80
356;DHT22;62514;48.112;11.566;2023-11-22T02:40:16;4.90;40.80
356;DHT22;62514;48.112;11.566;2023-11-22T02:42:49;4.80;38.00
356;DHT22;62514;48.112;11.566;2023-11-22T02:45:21;4.50;36.50
356;DHT22;62514;48.112;11.566;2023-11-22T02:47:50;4.40;35.70
356;DHT22;62514;48.112;11.566;2023-11-22T02:50:16;4.50;36.40
356;DHT22;62514;48.112;11.566;2023-11-22T02:52:42;4.30;35.60
356;DHT22;62514;48.112;11.566;2023-11-22T02:55:09;4.20;35.50
356;DHT22;62514;48.112;11.566;2023-11-22T02:57:35;4.10;37.20
356;DHT22;62514;48.112;11.566;2023-11-22T03:00:02;4.00;37.60
356;DHT22;62514;48.112;11.566;2023-11-22T03:02:29;4.00;36.90
356;DHT22;62514;48.112;11.566;2023-11-22T03:04:55;4.00;37.40
356;DHT22;62514;48.112;11.566;2023-11-22T03:07:20;3.90;37.70
356;DHT22;62514;48.112;11.566;2023-11-22T03:09:46;3.90;37.50
356;DHT22;62514;48.112;11.566;2023-11-22T03:12:13;3.60;35.40
356;DHT22;62514;48.112;11.566;2023-11-22T03:14:40;3.60;36.80
356;DHT22;62514;48.112;11.566;2023-11-22T03:17:06;3.60;37.00
356;DHT22;62514;48.112;11.566;2023-11-22T03:19:31;3.60;37.40
356;DHT22;62514;48.112;11.566;2023-11-22T03:22:00;3.50;38.00
356;DHT22;62514;48.112;11.566;2023-11-22T03:24:29;3.50;37.00
356;DHT22;62514;48.112;11.566;2023-11-22T03:26:55;3.50;37.60
356;DHT22;62514;48.112;11.566;2023-11-22T03:29:24;3.50;37.80
356;DHT22;62514;48.112;11.566;2023-11-22T03:31:50;3.40;35.50
356;DHT22;62514;48.112;11.566;2023-11-22T03:34:18;3.40;36.50
356;DHT22;62514;48.112;11.566;2023-11-22T03:36:43;3.40;37.00
356;DHT22;62514;48.112;11.566;2023-11-22T03:39:09;3.40;37.10
356;DHT22;62514;48.112;11.566;2023-11-22T03:41:36;3.40;36.60
356;DHT22;62514;48.112;11.566;2023-11-22T03:44:03;3.30;37.00
356;DHT22;62514;48.112;11.566;2023-11-22T03:46:30;3.30;36.00
356;DHT22;62514;48.112;11.566;2023-11-22T03:48:55;3.40;37.30
356;DHT22;62514;48.112;11.566;2023-11-22T03:51:21;3.30;37.10
356;DHT22;62514;48.112;11.566;2023-11-22T03:53:47;3.30;35.30
356;DHT22;62514;48.112;11.566;2023-11-22T03:56:12;3.10;36.30
356;DHT22;62514;48.112;11.566;2023-11-22T03:58:40;3.10;37.10
356;DHT22;62514;48.112;11.566;2023-11-22T04:01:05;3.00;38.00
356;DHT22;62514;48.112;11.566;2023-11-22T04:03:31;3.10;39.20
356;DHT22;62514;48.112;11.566;2023-11-22T04:05:57;3.20;39.20
356;DHT22;62514;48.112;11.566;2023-11-22T04:08:24;3.20;38.80
356;DHT22;62514;48.112;11.566;2023-11-22T04:10:50;3.20;38.30
356;DHT22;62514;48.112;11.566;2023-11-22T04:13:16;3.30;38.90
356;DHT22;62514;48.112;11.566;2023-11-22T04:15:42;3.30;38.40
356;DHT22;62514;48.112;11.566;2023-11-22T04:18:07;3.40;37.90
356;DHT22;62514;48.112;11.566;2023-11-22T04:20:33;3.40;37.60
356;DHT22;62514;48.112;11.566;2023-11-22T04:22:59;3.50;38.40
356;DHT22;62514;48.112;11.566;2023-11-22T04:25:24;3.50;38.00
356;DHT22;62514;48.112;11.566;2023-11-22T04:27:50;3.50;37.20
356;DHT22;62514;48.112;11.566;2023-11-22T04:30:16;3.50;35.50
356;DHT22;62514;48.112;11.566;2023-11-22T04:32:43;3.50;36.00
356;DHT22;62514;48.112;11.566;2023-11-22T04:35:10;3.50;37.00
356;DHT22;62514;48.112;11.566;2023-11-22T04:37:36;3.50;36.30
356;DHT22;62514;48.112;11.566;2023-11-22T04:40:04;3.40;37.10
356;DHT22;62514;48.112;11.566;2023-11-22T04:42:40;3.40;37.90
356;DHT22;62514;48.112;11.566;2023-11-22T04:45:06;3.50;38.60
356;DHT22;62514;48.112;11.566;2023-11-22T04:47:32;3.50;36.10
356;DHT22;62514;48.112;11.566;2023-11-22T04:49:59;3.50;35.80
356;DHT22;62514;48.112;11.566;2023-11-22T04:52:24;3.40;35.20
356;DHT22;62514;48.112;11.566;2023-11-22T04:54:50;3.50;35.30
356;DHT22;62514;48.112;11.566;2023-11-22T04:57:16;3.40;35.20
356;DHT22;62514;48.112;11.566;2023-11-22T04:59:41;3.30;35.20
356;DHT22;62514;48.112;11.566;2023-11-22T05:02:08;3.30;35.20
356;DHT22;62514;48.112;11.566;2023-11-22T05:04:33;3.30;35.20
356;DHT22;62514;48.112;11.566;2023-11-22T05:06:59;3.30;35.20
356;DHT22;62514;48.112;11.566;2023-11-22T05:09:25;3.40;35.90
356;DHT22;62514;48.112;11.566;2023-11-22T05:11:52;3.30;34.50
356;DHT22;62514;48.112;11.566;2023-11-22T05:14:18;3.40;35.10
356;DHT22;62514;48.112;11.566;2023-11-22T05:16:46;3.30;32.90
356;DHT22;62514;48.112;11.566;2023-11-22T05:19:12;3.30;33.70
356;DHT22;62514;48.112;11.566;2023-11-22T05:21:37;3.30;33.70
356;DHT22;62514;48.112;11.566;2023-11-22T05:24:03;3.40;34.30
356;DHT22;62514;48.112;11.566;2023-11-22T05:26:29;3.30;35.20
356;DHT22;62514;48.112;11.566;2023-11-22T05:28:55;3.40;35.20
356;DHT22;62514;48.112;11.566;2023-11-22T05:31:21;3.40;35.20
356;DHT22;62514;48.112;11.566;2023-11-22T05:33:47;3.40;35.20
356;DHT22;62514;48.112;11.566;2023-11-22T05:36:13;3.50;35.30
356;DHT22;62514;48.112;11.566;2023-11-22T05:38:39;3.50;35.30
356;DHT22;62514;48.112;11.566;2023-11-22T05:41:05;3.40;33.90
356;DHT22;62514;48.112;11.566;2023-11-22T05:43:31;3.40;33.30
356;DHT22;62514;48.112;11.566;2023-11-22T05:45:57;3.40;33.50
356;DHT22;62514;48.112;11.566;2023-11-22T05:48:22;3.30;33.20
356;DHT22;62514;48.112;11.566;2023-11-22T05:50:48;3.30;34.40
356;DHT22;62514;48.112;11.566;2023-11-22T05:53:14;3.20;32.50
356;DHT22;62514;48.112;11.566;2023-11-22T05:55:49;3.20;33.30
356;DHT22;62514;48.112;11.566;2023-11-22T05:58:15;3.20;33.80
356;DHT22;62514;48.112;11.566;2023-11-22T06:00:47;3.20;34.20
356;DHT22;62514;48.112;11.566;2023-11-22T06:03:13;3.20;33.70
356;DHT22;62514;48.112;11.566;2023-11-22T06:05:40;3.20;32.40
356;DHT22;62514;48.112;11.566;2023-11-22T06:08:07;3.10;32.40
356;DHT22;62514;48.112;11.566;2023-11-22T06:10:34;3.20;32.90
356;DHT22;62514;48.112;11.566;2023-11-22T06:13:00;3.10;31.80
356;DHT22;62514;48.112;11.566;2023-11-22T06:15:26;3.10;32.40
356;DHT22;62514;48.112;11.566;2023-11-22T06:17:51;3.20;33.00
356;DHT22;62514;48.112;11.566;2023-11-22T06:20:18;3.20;33.10
356;DHT22;62514;48.112;11.566;2023-11-22T06:22:44;3.10;32.40
356;DHT22;62514;48.112;11.566;2023-11-22T06:25:10;3.10;32.40
356;DHT22;62514;48.112;11.566;2023-11-22T06:27:37;3.00;32.30
356;DHT22;62514;48.112;11.566;2023-11-22T06:30:02;3.00;33.20
356;DHT22;62514;48.112;11.566;2023-11-22T06:32:28;3.00;33.60
356;DHT22;62514;48.112;11.566;2023-11-22T06:34:54;3.10;33.60
356;DHT22;62514;48.112;11.566;2023-11-22T06:37:20;3.10;33.80
356;DHT22;62514;48.112;11.566;2023-11-22T06:39:46;3.20;34.40
356;DHT22;62514;48.112;11.566;2023-11-22T06:42:12;3.20;33.80
356;DHT22;62514;48.112;11.566;2023-11-22T06:44:39;3.20;32.90
356;DHT22;62514;48.112;11.566;2023-11-22T06:47:05;3.20;32.70
356;DHT22;62514;48.112;11.566;2023-11-22T06:49:33;3.20;33.20
356;DHT22;62514;48.112;11.566;2023-11-22T06:51:58;3.20;33.30
356;DHT22;62514;48.112;11.566;2023-11-22T06:54:24;3.20;32.50
356;DHT22;62514;48.112;11.566;2023-11-22T06:56:49;3.10;32.00
356;DHT22;62514;48.112;11.566;2023-11-22T06:59:19;3.20;33.40
356;DHT22;62514;48.112;11.566;2023-11-22T07:01:44;3.20;32.90
356;DHT22;62514;48.112;11.566;2023-11-22T07:04:11;3.20;33.80
356;DHT22;62514;48.112;11.566;2023-11-22T07:06:37;3.30;33.80
356;DHT22;62514;48.112;11.566;2023-11-22T07:09:04;3.30;33.50
356;DHT22;62514;48.112;11.566;2023-11-22T07:11:29;3.30;33.30
356;DHT22;62514;48.112;11.566;2023-11-22T07:13:56;3.40;33.50
356;DHT22;62514;48.112;11.566;2023-11-22T07:16:23;3.50;33.80
356;DHT22;62514;48.112;11.566;2023-11-22T07:18:50;3.40;33.40
356;DHT22;62514;48.112;11.566;2023-11-22T07:21:16;3.40;33.30
356;DHT22;62514;48.112;11.566;2023-11-22T07:23:42;3.50;33.70
356;DHT22;62514;48.112;11.566;2023-11-22T07:26:10;3.40;33.30
356;DHT22;62514;48.112;11.566;2023-11-22T07:28:36;3.40;33.70
356;DHT22;62514;48.112;11.566;2023-11-22T07:31:02;3.30;33.40
356;DHT22;62514;48.112;11.566;2023-11-22T07:33:31;3.20;34.20
356;DHT22;62514;48.112;11.566;2023-11-22T07:35:57;3.10;34.70
356;DHT22;62514;48.112;11.566;2023-11-22T07:38:24;3.10;35.10
356;DHT22;62514;48.112;11.566;2023-11-22T07:40:50;3.10;35.90
356;DHT22;62514;48.112;11.566;2023-11-22T07:43:16;3.10;36.50
356;DHT22;62514;48.112;11.566;2023-11-22T07:45:42;3.10;36.50
356;DHT22;62514;48.112;11.566;2023-11-22T07:48:10;3.10;35.90
356;DHT22;62514;48.112;11.566;2023-11-22T07:50:37;3.20;35.30
356;DHT22;62514;48.112;11.566;2023-11-22T07:53:05;3.20;36.10
356;DHT22;62514;48.112;11.566;2023-11-22T07:55:31;3.20;35.10
356;DHT22;62514;48.112;11.566;2023-11-22T07:57:56;3.10;35.10
356;DHT22;62514;48.112;11.566;2023-11-22T08:00:22;3.10;35.10
356;DHT22;62514;48.112;11.566;2023-11-22T08:02:49;3.10;35.90
356;DHT22;62514;48.112;11.566;2023-11-22T08:05:16;3.20;34.90
356;DHT22;62514;48.112;11.566;2023-11-22T08:07:42;3.20;35.10
356;DHT22;62514;48.112;11.566;2023-11-22T08:10:10;3.20;35.10
356;DHT22;62514;48.112;11.566;2023-11-22T08:12:43;3.20;33.50
356;DHT22;62514;48.112;11.566;2023-11-22T08:15:10;3.20;33.50
356;DHT22;62514;48.112;11.566;2023-11-22T08:17:39;3.10;35.10
356;DHT22;62514;48.112;11.566;2023-11-22T08:20:06;3.10;35.10
356;DHT22;62514;48.112;11.566;2023-11-22T08:22:34;3.20;35.10
356;DHT22;62514;48.112;11.566;2023-11-22T08:25:04;3.10;35.10
356;DHT22;62514;48.112;11.566;2023-11-22T08:27:30;3.10;34.10
356;DHT22;62514;48.112;11.566;2023-11-22T08:29:57;3.00;35.00
356;DHT22;62514;48.112;11.566;2023-11-22T08:32:23;3.00;35.00
356;DHT22;62514;48.112;11.566;2023-11-22T08:34:53;3.00;35.40
356;DHT22;62514;48.112;11.566;2023-11-22T08:37:18;3.00;35.20
356;DHT22;62514;48.112;11.566;2023-11-22T08:39:44;3.00;35.00
356;DHT22;62514;48.112;11.566;2023-11-22T08:42:10;3.00;34.60
356;DHT22;62514;48.112;11.566;2023-11-22T08:44:36;2.90;34.20
356;DHT22;62514;48.112;11.566;2023-11-22T08:47:02;2.90;35.00
356;DHT22;62514;48.112;11.566;2023-11-22T08:49:29;3.00;35.50
356;DHT22;62514;48.112;11.566;2023-11-22T08:51:54;3.10;35.40
356;DHT22;62514;48.112;11.566;2023-11-22T08:54:20;3.20;34.20
356;DHT22;62514;48.112;11.566;2023-11-22T08:56:46;3.00;34.10
356;DHT22;62514;48.112;11.566;2023-11-22T08:59:14;2.90;35.10
356;DHT22;62514;48.112;11.566;2023-11-22T09:01:42;3.00;35.00
356;DHT22;62514;48.112;11.566;2023-11-22T09:04:11;3.00;35.00
356;DHT22;62514;48.112;11.566;2023-11-22T09:06:37;3.00;33.90
356;DHT22;62514;48.112;11.566;2023-11-22T09:09:03;2.90;33.50
356;DHT22;62514;48.112;11.566;2023-11-22T09:11:28;2.90;33.80
356;DHT22;62514;48.112;11.566;2023-11-22T09:13:54;2.90;34.90
356;DHT22;62514;48.112;11.566;2023-11-22T09:16:22;3.00;35.00
356;DHT22;62514;48.112;11.566;2023-11-22T09:18:50;2.90;34.70
356;DHT22;62514;48.112;11.566;2023-11-22T09:21:17;2.90;35.60
356;DHT22;62514;48.112;11.566;2023-11-22T09:23:43;2.80;36.10
356;DHT22;62514;48.112;11.566;2023-11-22T09:26:08;2.90;36.70
356;DHT22;62514;48.112;11.566;2023-11-22T09:28:34;2.80;36.70
356;DHT22;62514;48.112;11.566;2023-11-22T09:31:00;2.80;37.00
356;DHT22;62514;48.112;11.566;2023-11-22T09:33:31;2.90;37.70
356;DHT22;62514;48.112;11.566;2023-11-22T09:35:57;3.00;38.60
356;DHT22;62514;48.112;11.566;2023-11-22T09:38:29;3.10;38.80
356;DHT22;62514;48.112;11.566;2023-11-22T09:40:56;3.20;38.40
356;DHT22;62514;48.112;11.566;2023-11-22T09:43:22;3.20;35.90
356;DHT22;62514;48.112;11.566;2023-11-22T09:45:50;3.20;36.20
356;DHT22;62514;48.112;11.566;2023-11-22T09:48:20;3.10;35.10
356;DHT22;62514;48.112;11.566;2023-11-22T09:50:57;3.10;35.20
356;DHT22;62514;48.112;11.566;2023-11-22T09:53:31;3.00;35.00
356;DHT22;62514;48.112;11.566;2023-11-22T09:55:58;2.90;33.60
356;DHT22;62514;48.112;11.566;2023-11-22T09:58:24;2.90;34.50
356;DHT22;62514;48.112;11.566;2023-11-22T10:00:51;2.90;33.60
356;DHT22;62514;48.112;11.566;2023-11-22T10:03:18;2.80;33.10
356;DHT22;62514;48.112;11.566;2023-11-22T10:05:45;2.90;33.40
356;DHT22;62514;48.112;11.566;2023-11-22T10:08:11;2.90;33.60
356;DHT22;62514;48.112;11.566;2023-11-22T10:10:37;2.90;32.60
356;DHT22;62514;48.112;11.566;2023-11-22T10:13:03;2.90;33.40
356;DHT22;62514;48.112;11.566;2023-11-22T10:15:29;2.90;33.10
356;DHT22;62514;48.112;11.566;2023-11-22T10:17:56;2.90;33.20
356;DHT22;62514;48.112;11.566;2023-11-22T10:23:11;2.70;34.80
356;DHT22;62514;48.112;11.566;2023-11-22T10:25:47;2.80;35.60
356;DHT22;62514;48.112;11.566;2023-11-22T10:28:17;2.70;35.30
356;DHT22;62514;48.112;11.566;2023-11-22T10:30:45;2.80;35.60
356;DHT22;62514;48.112;11.566;2023-11-22T10:33:11;2.80;35.00
356;DHT22;62514;48.112;11.566;2023-11-22T10:35:47;2.70;35.00
356;DHT22;62514;48.112;11.566;2023-11-22T10:38:20;2.80;35.30
356;DHT22;62514;48.112;11.566;2023-11-22T10:40:46;2.80;34.90
356;DHT22;62514;48.112;11.566;2023-11-22T10:43:14;2.80;35.50
356;DHT22;62514;48.112;11.566;2023-11-22T10:45:44;2.90;35.60
356;DHT22;62514;48.112;11.566;2023-11-22T10:48:16;3.00;35.30
356;DHT22;62514;48.112;11.566;2023-11-22T10:50:46;3.00;34.20
356;DHT22;62514;48.112;11.566;2023-11-22T10:53:18;3.10;34.40
356;DHT22;62514;48.112;11.566;2023-11-22T10:55:46;3.20;35.10
356;DHT22;62514;48.112;11.566;2023-11-22T10:58:14;3.30;33.70
356;DHT22;62514;48.112;11.566;2023-11-22T11:00:41;3.30;32.20
356;DHT22;62514;48.112;11.566;2023-11-22T11:03:14;3.40;32.40
356;DHT22;62514;48.112;11.566;2023-11-22T11:05:49;3.40;29.10
356;DHT22;62514;48.112;11.566;2023-11-22T11:08:17;3.40;27.10
356;DHT22;62514;48.112;11.566;2023-11-22T11:10:46;3.30;27.90
356;DHT22;62514;48.112;11.566;2023-11-22T11:13:13;3.30;26.60
356;DHT22;62514;48.112;11.566;2023-11-22T11:15:39;3.20;27.30
356;DHT22;62514;48.112;11.566;2023-11-22T11:18:14;3.30;27.90
356;DHT22;62514;48.112;11.566;2023-11-22T11:23:13;3.30;26.30
356;DHT22;62514;48.112;11.566;2023-11-22T11:25:41;3.30;25.60
356;DHT22;62514;48.112;11.566;2023-11-22T11:28:10;3.20;25.20
356;DHT22;62514;48.112;11.566;2023-11-22T11:33:10;3.10;25.40
356;DHT22;62514;48.112;11.566;2023-11-22T11:35:39;3.10;27.00
356;DHT22;62514;48.112;11.566;2023-11-22T11:38:05;3.30;27.60
356;DHT22;62514;48.112;11.566;2023-11-22T11:40:34;3.30;26.90
356;DHT22;62514;48.112;11.566;2023-11-22T11:43:01;3.30;27.50
356;DHT22;62514;48.112;11.566;2023-11-22T11:45:28;3.40;27.80
356;DHT22;62514;48.112;11.566;2023-11-22T11:47:55;3.40;26.90
356;DHT22;62514;48.112;11.566;2023-11-22T11:50:21;3.40;27.60
356;DHT22;62514;48.112;11.566;2023-11-22T11:52:47;3.50;26.90
356;DHT22;62514;48.112;11.566;2023-11-22T11:55:13;3.60;26.60
356;DHT22;62514;48.112;11.566;2023-11-22T11:57:39;3.60;24.20
356;DHT22;62514;48.112;11.566;2023-11-22T12:00:08;3.70;24.90
356;DHT22;62514;48.112;11.566;2023-11-22T12:02:35;3.80;25.30
356;DHT22;62514;48.112;11.566;2023-11-22T12:05:00;3.90;25.40
356;DHT22;62514;48.112;11.566;2023-11-22T12:07:36;4.00;24.40
356;DHT22;62514;48.112;11.566;2023-11-22T12:10:03;3.90;21.50
356;DHT22;62514;48.112;11.566;2023-11-22T12:12:32;3.90;22.30
356;DHT22;62514;48.112;11.566;2023-11-22T12:14:57;3.90;22.50
356;DHT22;62514;48.112;11.566;2023-11-22T12:17:25;4.00;22.60
356;DHT22;62514;48.112;11.566;2023-11-22T12:19:51;4.10;22.80
356;DHT22;62514;48.112;11.566;2023-11-22T12:22:17;3.90;21.50
356;DHT22;62514;48.112;11.566;2023-11-22T12:24:43;3.80;21.50
356;DHT22;62514;48.112;11.566;2023-11-22T12:27:12;3.70;23.40
356;DHT22;62514;48.112;11.566;2023-11-22T12:29:39;3.80;24.30
356;DHT22;62514;48.112;11.566;2023-11-22T12:32:07;3.90;24.40
356;DHT22;62514;48.112;11.566;2023-11-22T12:34:33;4.00;24.40
356;DHT22;62514;48.112;11.566;2023-11-22T12:36:59;4.00;21.40
356;DHT22;62514;48.112;11.566;2023-11-22T12:39:25;3.90;21.20
356;DHT22;62514;48.112;11.566;2023-11-22T12:41:53;3.80;20.90
356;DHT22;62514;48.112;11.566;2023-11-22T12:44:20;3.70;20.00
356;DHT22;62514;48.112;11.566;2023-11-22T12:46:49;3.80;19.90
356;DHT22;62514;48.112;11.566;2023-11-22T12:49:16;3.70;20.20
356;DHT22;62514;48.112;11.566;2023-11-22T12:51:51;3.70;18.80
356;DHT22;62514;48.112;11.566;2023-11-22T12:54:17;3.80;19.00
356;DHT22;62514;48.112;11.566;2023-11-22T12:56:50;3.70;18.50
356;DHT22;62514;48.112;11.566;2023-11-22T12:59:16;3.60;19.80
356;DHT22;62514;48.112;11.566;2023-11-22T13:01:44;3.50;21.70
356;DHT22;62514;48.112;11.566;2023-11-22T13:04:09;3.50;23.50
356;DHT22;62514;48.112;11.566;2023-11-22T13:06:35;3.40;22.90
356;DHT22;62514;48.112;11.566;2023-11-22T13:09:01;3.40;24.10
356;DHT22;62514;48.112;11.566;2023-11-22T13:11:26;3.40;25.50
356;DHT22;62514;48.112;11.566;2023-11-22T13:13:52;3.50;26.20
356;DHT22;62514;48.112;11.566;2023-11-22T13:16:18;3.50;24.80
356;DHT22;62514;48.112;11.566;2023-11-22T13:18:44;3.60;25.50
356;DHT22;62514;48.112;11.566;2023-11-22T13:21:10;3.70;25.50
356;DHT22;62514;48.112;11.566;2023-11-22T13:23:36;3.80;26.20
356;DHT22;62514;48.112;11.566;2023-11-22T13:26:01;3.80;25.90
356;DHT22;62514;48.112;11.566;2023-11-22T13:28:28;4.00;25.50
356;DHT22;62514;48.112;11.566;2023-11-22T13:30:54;3.80;24.30
356;DHT22;62514;48.112;11.566;2023-11-22T13:33:19;3.60;23.40
356;DHT22;62514;48.112;11.566;2023-11-22T13:35:45;3.50;23.20
356;DHT22;62514;48.112;11.566;2023-11-22T13:38:12;3.40;24.10
356;DHT22;62514;48.112;11.566;2023-11-22T13:40:39;3.30;23.70
356;DHT22;62514;48.112;11.566;2023-11-22T13:43:06;3.30;24.70
356;DHT22;62514;48.112;11.566;2023-11-22T13:45:35;3.40;25.00
356;DHT22;62514;48.112;11.566;2023-11-22T13:48:01;3.40;25.10
356;DHT22;62514;48.112;11.566;2023-11-22T13:50:32;3.40;24.50
356;DHT22;62514;48.112;11.566;2023-11-22T13:52:58;3.50;25.70
356;DHT22;62514;48.112;11.566;2023-11-22T13:55:25;3.60;27.10
356;DHT22;62514;48.112;11.566;2023-11-22T13:57:56;3.60;26.10
356;DHT22;62514;48.112;11.566;2023-11-22T14:00:26;3.50;24.20
356;DHT22;62514;48.112;11.566;2023-11-22T14:02:55;3.60;24.20
356;DHT22;62514;48.112;11.566;2023-11-22T14:05:25;3.70;24.30
356;DHT22;62514;48.112;11.566;2023-11-22T14:07:52;3.70;24.20
356;DHT22;62514;48.112;11.566;2023-11-22T14:10:18;3.70;21.80
356;DHT22;62514;48.112;11.566;2023-11-22T14:12:45;3.60;21.40
356;DHT22;62514;48.112;11.566;2023-11-22T14:15:11;3.60;22.30
356;DHT22;62514;48.112;11.566;2023-11-22T14:17:37;3.60;23.80
356;DHT22;62514;48.112;11.566;2023-11-22T14:20:12;3.40;21.30
356;DHT22;62514;48.112;11.566;2023-11-22T14:22:39;3.40;22.10
356;DHT22;62514;48.112;11.566;2023-11-22T14:25:06;3.50;23.10
356;DHT22;62514;48.112;11.566;2023-11-22T14:27:38;3.60;23.40
356;DHT22;62514;48.112;11.566;2023-11-22T14:30:06;3.70;23.00
356;DHT22;62514;48.112;11.566;2023-11-22T14:32:33;3.70;23.10
356;DHT22;62514;48.112;11.566;2023-11-22T14:35:04;3.70;22.60
356;DHT22;62514;48.112;11.566;2023-11-22T14:37:29;3.70;24.10
356;DHT22;62514;48.112;11.566;2023-11-22T14:39:56;3.60;22.80
356;DHT22;62514;48.112;11.566;2023-11-22T14:42:22;3.60;24.20
356;DHT22;62514;48.112;11.566;2023-11-22T14:44:48;3.60;24.20
356;DHT22;62514;48.112;11.566;2023-11-22T14:47:14;3.60;23.90
356;DHT22;62514;48.112;11.566;2023-11-22T14:49:48;3.50;24.20
356;DHT22;62514;48.112;11.566;2023-11-22T14:52:14;3.60;24.20
356;DHT22;62514;48.112;11.566;2023-11-22T14:54:42;3.50;24.20
356;DHT22;62514;48.112;11.566;2023-11-22T14:57:07;3.40;24.10
356;DHT22;62514;48.112;11.566;2023-11-22T14:59:35;3.40;25.10
356;DHT22;62514;48.112;11.566;2023-11-22T15:02:03;3.40;24.80
356;DHT22;62514;48.112;11.566;2023-11-22T15:04:30;3.30;24.70
356;DHT22;62514;48.112;11.566;2023-11-22T15:06:56;3.30;25.70
356;DHT22;62514;48.112;11.566;2023-11-22T15:09:22;3.30;25.80
356;DHT22;62514;48.112;11.566;2023-11-22T15:11:48;3.50;26.20
356;DHT22;62514;48.112;11.566;2023-11-22T15:14:13;3.40;26.90
356;DHT22;62514;48.112;11.566;2023-11-22T15:16:39;3.60;27.10
356;DHT22;62514;48.112;11.566;2023-11-22T15:19:04;3.60;27.00
356;DHT22;62514;48.112;11.566;2023-11-22T15:21:32;3.30;24.70
356;DHT22;62514;48.112;11.566;2023-11-22T15:23:59;3.20;25.50
356;DHT22;62514;48.112;11.566;2023-11-22T15:26:25;3.20;25.90
356;DHT22;62514;48.112;11.566;2023-11-22T15:28:52;3.20;26.60
356;DHT22;62514;48.112;11.566;2023-11-22T15:31:18;3.20;26.80
356;DHT22;62514;48.112;11.566;2023-11-22T15:33:45;3.30;26.30
356;DHT22;62514;48.112;11.566;2023-11-22T15:36:11;3.40;26.90
356;DHT22;62514;48.112;11.566;2023-11-22T15:38:36;3.50;26.80
356;DHT22;62514;48.112;11.566;2023-11-22T15:41:02;3.50;25.00
356;DHT22;62514;48.112;11.566;2023-11-22T15:43:28;3.50;25.70
356;DHT22;62514;48.112;11.566;2023-11-22T15:45:55;3.30;24.10
356;DHT22;62514;48.112;11.566;2023-11-22T15:48:21;3.20;24.80
356;DHT22;62514;48.112;11.566;2023-11-22T15:50:48;3.30;26.00
356;DHT22;62514;48.112;11.566;2023-11-22T15:53:13;3.30;25.60
356;DHT22;62514;48.112;11.566;2023-11-22T15:55:39;3.40;25.70
356;DHT22;62514;48.112;11.566;2023-11-22T15:58:05;3.30;24.70
356;DHT22;62514;48.112;11.566;2023-11-22T16:00:31;3.30;24.80
356;DHT22;62514;48.112;11.566;2023-11-22T16:02:57;3.30;24.60
356;DHT22;62514;48.112;11.566;2023-11-22T16:05:23;3.30;25.20
356;DHT22;62514;48.112;11.566;2023-11-22T16:07:49;3.30;24.20